createdAt,value
2023-03-29T00:00:07.042Z,5.18
2023-03-29T00:01:07.050Z,5.84
2023-03-29T00:02:07.127Z,5.30
2023-03-29T00:03:07.370Z,5.96
2023-03-29T00:04:07.275Z,5.92
2023-03-29T00:05:07.268Z,5.67
2023-03-29T00:06:07.244Z,5.89
2023-03-29T00:07:07.292Z,6.33
2023-03-29T00:08:07.375Z,5.31
2023-03-29T00:09:07.309Z,5.44
2023-03-29T00:10:07.311Z,5.39
2023-03-29T00:11:07.383Z,5.34
2023-03-29T00:12:07.416Z,5.83
2023-03-29T00:13:07.438Z,6.14
2023-03-29T00:14:07.466Z,5.96
2023-03-29T00:15:07.424Z,5.82
2023-03-29T00:16:07.449Z,5.62
2023-03-29T00:17:07.482Z,5.68
2023-03-29T00:18:07.501Z,5.01
2023-03-29T00:19:07.530Z,5.29
2023-03-29T00:20:07.592Z,6.20
2023-03-29T00:21:07.604Z,5.48
2023-03-29T00:22:07.670Z,5.88
2023-03-29T00:23:07.780Z,5.68
2023-03-29T00:24:07.715Z,5.92
2023-03-29T00:25:07.745Z,6.16
2023-03-29T00:26:08.331Z,6.01
2023-03-29T00:27:07.801Z,5.86
2023-03-29T00:28:07.802Z,5.67
2023-03-29T00:29:07.807Z,5.67
2023-03-29T00:30:07.823Z,5.94
2023-03-29T00:31:07.914Z,5.56
2023-03-29T00:32:07.880Z,6.09
2023-03-29T00:33:07.905Z,5.79
2023-03-29T00:34:07.885Z,5.43
2023-03-29T00:35:07.895Z,6.03
2023-03-29T00:36:07.950Z,6.24
2023-03-29T00:37:07.918Z,6.10
2023-03-29T00:38:07.976Z,6.24
2023-03-29T00:39:08.004Z,5.75
2023-03-29T00:40:07.986Z,6.78
2023-03-29T00:41:08.007Z,6.45
2023-03-29T00:42:08.042Z,6.91
2023-03-29T00:43:08.105Z,7.01
2023-03-29T00:44:08.131Z,7.60
2023-03-29T00:45:08.162Z,6.12
2023-03-29T00:46:08.266Z,6.91
2023-03-29T00:47:08.271Z,7.36
2023-03-29T00:48:08.494Z,7.55
2023-03-29T00:49:08.370Z,8.25
2023-03-29T00:50:08.316Z,7.15
2023-03-29T00:51:09.993Z,6.92
2023-03-29T00:52:08.392Z,7.18
2023-03-29T00:53:08.398Z,6.42
2023-03-29T00:54:08.456Z,6.78
2023-03-29T00:55:08.454Z,6.82
2023-03-29T00:56:08.496Z,7.15
2023-03-29T00:57:08.584Z,6.77
2023-03-29T00:58:08.572Z,6.56
2023-03-29T00:59:08.569Z,6.95
2023-03-29T01:00:08.624Z,7.25
2023-03-29T01:01:08.676Z,7.62
2023-03-29T01:02:08.796Z,7.73
2023-03-29T01:03:08.859Z,6.95
2023-03-29T01:04:08.896Z,6.84
2023-03-29T01:05:08.821Z,7.15
2023-03-29T01:06:08.827Z,7.46
2023-03-29T01:07:08.885Z,7.38
2023-03-29T01:08:08.834Z,7.05
2023-03-29T01:09:08.907Z,7.21
2023-03-29T01:10:08.942Z,6.74
2023-03-29T01:11:09.045Z,6.39
2023-03-29T01:12:09.053Z,6.43
2023-03-29T01:13:09.145Z,6.65
2023-03-29T01:14:09.164Z,6.47
2023-03-29T01:15:09.200Z,7.03
2023-03-29T01:16:09.286Z,7.06
2023-03-29T01:17:09.338Z,6.08
2023-03-29T01:18:09.412Z,6.76
2023-03-29T01:19:09.395Z,7.00
2023-03-29T01:20:09.391Z,6.81
2023-03-29T01:21:09.409Z,6.84
2023-03-29T01:22:09.458Z,6.72
2023-03-29T01:23:09.468Z,6.97
2023-03-29T01:24:09.460Z,6.54
2023-03-29T01:25:09.472Z,7.47
2023-03-29T01:26:09.526Z,6.67
2023-03-29T01:27:09.539Z,7.08
2023-03-29T01:28:09.654Z,6.98
2023-03-29T01:29:09.649Z,6.31
2023-03-29T01:30:09.663Z,6.99
2023-03-29T01:31:09.733Z,6.39
2023-03-29T01:32:09.800Z,6.31
2023-03-29T01:33:09.790Z,7.18
2023-03-29T01:34:09.834Z,6.23
2023-03-29T01:35:09.860Z,7.02
2023-03-29T01:36:09.964Z,7.32
2023-03-29T01:37:09.966Z,7.03
2023-03-29T01:38:10.029Z,6.77
2023-03-29T01:39:10.091Z,6.56
2023-03-29T01:40:10.214Z,5.75
2023-03-29T01:41:10.190Z,6.11
2023-03-29T01:42:10.277Z,5.98
2023-03-29T01:43:10.380Z,5.39
2023-03-29T01:44:10.396Z,6.43
2023-03-29T01:45:10.459Z,6.46
2023-03-29T01:46:10.763Z,6.10
2023-03-29T01:47:10.556Z,6.17
2023-03-29T01:48:10.670Z,6.56
2023-03-29T01:49:10.743Z,5.76
2023-03-29T01:50:10.719Z,6.19
2023-03-29T01:51:10.765Z,6.89
2023-03-29T01:52:10.791Z,6.94
2023-03-29T01:53:10.920Z,6.08
2023-03-29T01:54:10.903Z,7.10
2023-03-29T01:55:10.977Z,6.67
2023-03-29T01:56:10.974Z,6.99
2023-03-29T01:57:11.056Z,7.02
2023-03-29T01:58:11.093Z,7.36
2023-03-29T01:59:11.095Z,7.63
2023-03-29T02:00:11.141Z,7.47
2023-03-29T02:01:11.232Z,7.56
2023-03-29T02:02:11.321Z,7.63
2023-03-29T02:03:11.414Z,7.00
2023-03-29T02:04:11.292Z,7.50
2023-03-29T02:05:11.286Z,7.68
2023-03-29T02:06:11.341Z,8.26
2023-03-29T02:07:11.420Z,7.73
2023-03-29T02:08:11.468Z,7.38
2023-03-29T02:09:11.474Z,7.05
2023-03-29T02:10:11.497Z,7.77
2023-03-29T02:11:11.541Z,7.44
2023-03-29T02:12:11.612Z,7.35
2023-03-29T02:13:11.704Z,6.94
2023-03-29T02:14:11.707Z,7.67
2023-03-29T02:15:11.772Z,7.76
2023-03-29T02:16:11.871Z,6.92
2023-03-29T02:17:11.827Z,7.72
2023-03-29T02:18:11.937Z,7.26
2023-03-29T02:19:11.946Z,7.76
2023-03-29T02:20:11.955Z,7.61
2023-03-29T02:21:12.007Z,8.20
2023-03-29T02:22:12.081Z,7.77
2023-03-29T02:23:12.096Z,6.54
2023-03-29T02:24:12.140Z,6.51
2023-03-29T02:25:12.147Z,7.41
2023-03-29T02:26:12.156Z,7.11
2023-03-29T02:27:12.161Z,6.29
2023-03-29T02:28:12.191Z,6.47
2023-03-29T02:29:12.115Z,6.08
2023-03-29T02:30:12.168Z,6.22
2023-03-29T02:31:12.229Z,6.20
2023-03-29T02:32:12.239Z,6.99
2023-03-29T02:33:12.260Z,6.36
2023-03-29T02:34:12.252Z,5.97
2023-03-29T02:35:12.275Z,6.11
2023-03-29T02:36:12.296Z,5.64
2023-03-29T02:37:12.316Z,5.80
2023-03-29T02:38:12.388Z,5.58
2023-03-29T02:39:12.390Z,6.50
2023-03-29T02:40:12.405Z,5.59
2023-03-29T02:41:12.445Z,5.68
2023-03-29T02:42:12.466Z,6.37
2023-03-29T02:43:12.474Z,6.63
2023-03-29T02:44:12.506Z,6.80
2023-03-29T02:45:12.533Z,6.10
2023-03-29T02:46:12.591Z,6.52
2023-03-29T02:47:12.605Z,6.78
2023-03-29T02:48:12.682Z,6.54
2023-03-29T02:49:12.757Z,7.21
2023-03-29T02:50:12.733Z,7.29
2023-03-29T02:51:12.836Z,7.46
2023-03-29T02:52:12.907Z,6.60
2023-03-29T02:53:12.917Z,7.03
2023-03-29T02:54:12.917Z,7.67
2023-03-29T02:55:12.961Z,6.60
2023-03-29T02:56:12.935Z,7.86
2023-03-29T02:57:13.042Z,7.15
2023-03-29T02:58:13.050Z,7.01
2023-03-29T02:59:13.050Z,7.43
2023-03-29T03:00:13.074Z,7.66
2023-03-29T03:01:13.117Z,8.04
2023-03-29T03:02:13.095Z,7.80
2023-03-29T03:03:13.267Z,7.91
2023-03-29T03:04:13.409Z,8.33
2023-03-29T03:05:13.141Z,7.07
2023-03-29T03:06:13.140Z,7.49
2023-03-29T03:07:13.163Z,8.04
2023-03-29T03:08:13.164Z,6.89
2023-03-29T03:09:13.191Z,6.91
2023-03-29T03:10:13.250Z,7.02
2023-03-29T03:11:13.293Z,6.33
2023-03-29T03:12:13.324Z,7.24
2023-03-29T03:13:13.393Z,6.51
2023-03-29T03:14:13.434Z,7.23
2023-03-29T03:15:13.506Z,6.98
2023-03-29T03:16:13.590Z,7.18
2023-03-29T03:17:13.537Z,6.81
2023-03-29T03:18:13.519Z,6.74
2023-03-29T03:19:13.524Z,7.20
2023-03-29T03:20:13.608Z,7.67
2023-03-29T03:21:13.616Z,7.31
2023-03-29T03:22:13.669Z,7.48
2023-03-29T03:23:13.740Z,7.72
2023-03-29T03:24:13.781Z,6.04
2023-03-29T03:25:13.853Z,7.71
2023-03-29T03:26:13.898Z,8.06
2023-03-29T03:27:13.962Z,7.28
2023-03-29T03:28:14.030Z,7.08
2023-03-29T03:29:14.035Z,7.78
2023-03-29T03:30:14.022Z,8.13
2023-03-29T03:31:14.135Z,7.71
2023-03-29T03:32:14.110Z,7.50
2023-03-29T03:33:14.136Z,7.32
2023-03-29T03:34:14.186Z,5.27
2023-03-29T03:35:14.226Z,5.79
2023-03-29T03:36:14.271Z,4.98
2023-03-29T03:37:14.282Z,5.56
2023-03-29T03:38:14.289Z,5.38
2023-03-29T03:39:14.337Z,6.82
2023-03-29T03:40:14.309Z,6.80
2023-03-29T03:41:14.313Z,7.26
2023-03-29T03:42:14.380Z,7.87
2023-03-29T03:43:14.454Z,7.95
2023-03-29T03:44:14.443Z,8.13
2023-03-29T03:45:15.422Z,8.12
2023-03-29T03:46:14.552Z,7.88
2023-03-29T03:47:14.517Z,8.20
2023-03-29T03:48:14.528Z,8.86
2023-03-29T03:49:14.528Z,8.06
2023-03-29T03:50:14.565Z,8.37
2023-03-29T03:51:14.639Z,9.20
2023-03-29T03:52:14.705Z,8.56
2023-03-29T03:53:14.746Z,8.83
2023-03-29T03:54:14.763Z,8.88
2023-03-29T03:55:14.834Z,9.46
2023-03-29T03:56:14.891Z,9.88
2023-03-29T03:57:14.938Z,9.07
2023-03-29T03:58:14.926Z,9.50
2023-03-29T03:59:14.951Z,10.18
2023-03-29T04:00:15.057Z,9.85
2023-03-29T04:01:15.123Z,9.45
2023-03-29T04:02:15.196Z,9.82
2023-03-29T04:03:15.401Z,10.02
2023-03-29T04:04:15.336Z,9.15
2023-03-29T04:05:15.362Z,9.54
2023-03-29T04:06:15.390Z,10.05
2023-03-29T04:07:15.441Z,9.50
2023-03-29T04:08:15.488Z,10.24
2023-03-29T04:09:15.510Z,9.73
2023-03-29T04:10:15.540Z,10.94
2023-03-29T04:11:15.648Z,10.57
2023-03-29T04:12:15.684Z,11.15
2023-03-29T04:13:15.706Z,11.03
2023-03-29T04:14:15.767Z,11.34
2023-03-29T04:15:15.781Z,10.94
2023-03-29T04:16:15.838Z,11.64
2023-03-29T04:17:15.844Z,10.66
2023-03-29T04:18:16.134Z,10.28
2023-03-29T04:19:15.955Z,11.13
2023-03-29T04:20:16.046Z,10.14
2023-03-29T04:21:16.085Z,10.90
2023-03-29T04:22:16.133Z,11.73
2023-03-29T04:23:16.212Z,11.04
2023-03-29T04:24:16.308Z,10.62
2023-03-29T04:25:16.297Z,10.36
2023-03-29T04:26:16.308Z,10.27
2023-03-29T04:27:16.352Z,10.71
2023-03-29T04:28:16.434Z,10.19
2023-03-29T04:29:16.510Z,10.89
2023-03-29T04:30:16.576Z,11.62
2023-03-29T04:31:16.699Z,10.69
2023-03-29T04:32:16.749Z,11.33
2023-03-29T04:33:16.815Z,11.57
2023-03-29T04:34:16.935Z,11.90
2023-03-29T04:35:16.963Z,11.47
2023-03-29T04:36:17.034Z,11.08
2023-03-29T04:37:16.956Z,11.28
2023-03-29T04:38:16.960Z,12.41
2023-03-29T04:39:16.919Z,11.07
2023-03-29T04:40:16.912Z,11.70
2023-03-29T04:41:16.910Z,11.90
2023-03-29T04:42:16.881Z,13.06
2023-03-29T04:43:16.915Z,12.11
2023-03-29T04:44:16.844Z,13.18
2023-03-29T04:45:16.903Z,13.01
2023-03-29T04:46:16.897Z,13.12
2023-03-29T04:47:16.916Z,13.38
2023-03-29T04:48:16.936Z,12.88
2023-03-29T04:49:16.989Z,13.24
2023-03-29T04:50:16.988Z,12.58
2023-03-29T04:51:17.045Z,13.54
2023-03-29T04:52:17.096Z,14.39
2023-03-29T04:53:17.147Z,14.24
2023-03-29T04:54:17.178Z,13.30
2023-03-29T04:55:17.169Z,14.64
2023-03-29T04:56:17.209Z,14.51
2023-03-29T04:57:17.255Z,15.14
2023-03-29T04:58:18.155Z,12.15
2023-03-29T04:59:17.229Z,13.10
2023-03-29T05:01:45.118Z,12.26
2023-03-29T05:02:37.566Z,13.26
2023-03-29T05:03:37.488Z,13.42
2023-03-29T05:04:37.523Z,14.47
2023-03-29T05:05:37.457Z,13.29
2023-03-29T05:06:37.432Z,13.11
2023-03-29T05:07:37.434Z,13.02
2023-03-29T05:08:37.437Z,12.31
2023-03-29T05:09:37.405Z,13.20
2023-03-29T05:10:37.442Z,13.46
2023-03-29T05:11:37.414Z,12.41
2023-03-29T05:12:37.454Z,13.49
2023-03-29T05:13:37.429Z,12.85
2023-03-29T05:14:37.377Z,12.64
2023-03-29T05:15:39.043Z,12.19
2023-03-29T05:16:37.414Z,12.22
2023-03-29T05:17:37.376Z,11.94
2023-03-29T05:18:37.425Z,12.79
2023-03-29T05:19:37.378Z,11.53
2023-03-29T05:20:37.359Z,11.64
2023-03-29T05:21:37.331Z,12.19
2023-03-29T05:22:37.333Z,12.33
2023-03-29T05:23:37.416Z,13.98
2023-03-29T05:24:37.353Z,13.17
2023-03-29T05:25:37.317Z,11.90
2023-03-29T05:26:37.350Z,13.82
2023-03-29T05:27:37.332Z,13.10
2023-03-29T05:28:37.366Z,12.04
2023-03-29T05:29:37.282Z,12.66
2023-03-29T05:30:37.305Z,12.70
2023-03-29T05:31:37.331Z,12.99
2023-03-29T05:32:37.330Z,12.41
2023-03-29T05:33:37.382Z,12.29
2023-03-29T05:34:37.297Z,12.68
2023-03-29T05:35:37.326Z,12.95
2023-03-29T05:36:37.287Z,12.64
2023-03-29T05:37:37.356Z,13.37
2023-03-29T05:38:37.725Z,13.44
2023-03-29T05:39:37.793Z,14.72
2023-03-29T05:40:37.256Z,14.07
2023-03-29T05:41:37.248Z,14.45
2023-03-29T05:42:37.229Z,14.65
2023-03-29T05:43:37.263Z,13.53
2023-03-29T05:44:37.722Z,14.19
2023-03-29T05:47:05.176Z,14.36
2023-03-29T05:47:57.377Z,14.87
2023-03-29T05:48:57.555Z,15.28
2023-03-29T05:49:57.445Z,18.65
2023-03-29T05:50:57.386Z,15.06
2023-03-29T05:51:57.350Z,14.05
2023-03-29T05:52:57.423Z,15.89
2023-03-29T05:53:57.325Z,14.84
2023-03-29T05:54:57.293Z,15.09
2023-03-29T05:55:57.304Z,15.66
2023-03-29T05:56:57.398Z,14.21
2023-03-29T05:57:57.367Z,14.87
2023-03-29T05:58:57.367Z,13.84
2023-03-29T05:59:57.499Z,14.15
2023-03-29T06:00:57.478Z,15.45
2023-03-29T06:01:57.496Z,13.97
2023-03-29T06:03:06.466Z,13.57
2023-03-29T06:03:59.328Z,13.17
2023-03-29T06:04:57.656Z,14.83
2023-03-29T06:05:57.523Z,15.62
2023-03-29T06:06:57.617Z,16.43
2023-03-29T06:07:57.519Z,15.62
2023-03-29T06:08:57.487Z,15.50
2023-03-29T06:09:57.548Z,14.99
2023-03-29T06:10:57.481Z,15.06
2023-03-29T06:11:57.510Z,14.57
2023-03-29T06:12:57.607Z,15.47
2023-03-29T06:13:57.568Z,14.08
2023-03-29T06:14:58.040Z,16.10
2023-03-29T06:15:57.673Z,16.50
2023-03-29T06:16:57.775Z,16.53
2023-03-29T06:17:57.801Z,15.16
2023-03-29T06:18:57.820Z,15.38
2023-03-29T06:19:57.980Z,16.61
2023-03-29T06:20:58.014Z,15.99
2023-03-29T06:21:57.943Z,14.79
2023-03-29T06:22:57.947Z,14.13
2023-03-29T06:23:58.044Z,13.88
2023-03-29T06:24:57.958Z,14.24
2023-03-29T06:25:58.007Z,14.73
2023-03-29T06:26:57.970Z,13.73
2023-03-29T06:27:58.016Z,13.66
2023-03-29T06:28:57.988Z,13.32
2023-03-29T06:29:58.043Z,13.61
2023-03-29T06:30:58.148Z,14.64
2023-03-29T06:31:58.090Z,13.15
2023-03-29T06:32:58.175Z,14.01
2023-03-29T06:33:58.030Z,13.32
2023-03-29T06:34:58.593Z,13.17
2023-03-29T06:35:58.162Z,14.34
2023-03-29T06:36:58.585Z,13.61
2023-03-29T06:37:58.140Z,13.85
2023-03-29T06:38:58.251Z,14.66
2023-03-29T06:39:58.567Z,13.16
2023-03-29T06:40:58.464Z,15.72
2023-03-29T06:41:59.029Z,15.79
2023-03-29T06:42:58.232Z,15.45
2023-03-29T06:43:58.242Z,15.61
2023-03-29T06:45:00.255Z,16.24
2023-03-29T06:46:01.249Z,15.13
2023-03-29T06:47:05.870Z,16.70
2023-03-29T06:47:58.771Z,16.48
2023-03-29T06:48:58.777Z,16.19
2023-03-29T06:49:58.713Z,15.42
2023-03-29T06:50:58.583Z,14.50
2023-03-29T06:51:59.423Z,14.17
2023-03-29T06:53:02.463Z,14.92
2023-03-29T06:53:58.300Z,14.58
2023-03-29T06:54:58.261Z,14.03
2023-03-29T06:55:58.281Z,13.76
2023-03-29T06:56:58.287Z,14.39
2023-03-29T06:57:59.114Z,13.87
2023-03-29T06:58:59.561Z,13.06
2023-03-29T07:01:26.128Z,13.22
2023-03-29T07:02:17.978Z,12.85
2023-03-29T07:03:18.003Z,11.91
2023-03-29T07:04:18.255Z,12.47
2023-03-29T07:05:18.029Z,12.36
2023-03-29T07:06:18.613Z,12.55
2023-03-29T07:07:18.056Z,11.43
2023-03-29T07:08:18.022Z,11.64
2023-03-29T07:09:19.565Z,12.04
2023-03-29T07:10:18.169Z,12.99
2023-03-29T07:11:18.091Z,12.34
2023-03-29T07:12:18.158Z,12.12
2023-03-29T07:13:18.160Z,12.49
2023-03-29T07:14:18.198Z,12.12
2023-03-29T07:15:18.258Z,12.68
2023-03-29T07:16:18.319Z,12.25
2023-03-29T07:17:18.320Z,13.03
2023-03-29T07:18:18.456Z,12.24
2023-03-29T07:19:18.500Z,11.20
2023-03-29T07:20:18.562Z,11.93
2023-03-29T07:21:18.505Z,13.10
2023-03-29T07:22:18.580Z,11.90
2023-03-29T07:23:18.608Z,12.73
2023-03-29T07:24:18.648Z,12.75
2023-03-29T07:25:18.699Z,12.01
2023-03-29T07:26:30.006Z,12.54
2023-03-29T07:27:18.781Z,11.00
2023-03-29T07:28:18.696Z,10.55
2023-03-29T07:29:18.697Z,11.94
2023-03-29T07:30:19.155Z,11.55
2023-03-29T07:31:18.737Z,11.53
2023-03-29T07:32:18.759Z,10.36
2023-03-29T07:33:18.851Z,11.36
2023-03-29T07:34:18.706Z,10.79
2023-03-29T07:35:19.124Z,10.94
2023-03-29T07:36:18.740Z,12.22
2023-03-29T07:37:18.723Z,11.31
2023-03-29T07:38:18.751Z,11.63
2023-03-29T07:39:18.835Z,10.01
2023-03-29T07:40:19.050Z,11.25
2023-03-29T07:41:18.868Z,11.06
2023-03-29T07:42:18.876Z,10.94
2023-03-29T07:43:19.003Z,11.68
2023-03-29T07:44:18.987Z,11.14
2023-03-29T07:45:19.606Z,9.61
2023-03-29T07:46:20.180Z,9.99
2023-03-29T07:47:19.183Z,9.98
2023-03-29T07:48:19.225Z,10.68
2023-03-29T07:49:21.004Z,8.98
2023-03-29T07:50:19.639Z,9.60
2023-03-29T07:51:19.196Z,11.31
2023-03-29T07:52:19.133Z,9.45
2023-03-29T07:53:19.183Z,10.13
2023-03-29T07:54:26.740Z,11.87
2023-03-29T07:55:19.134Z,11.24
2023-03-29T07:56:19.158Z,10.24
2023-03-29T07:57:19.175Z,11.37
2023-03-29T07:58:19.194Z,10.92
2023-03-29T07:59:19.124Z,10.22
2023-03-29T08:00:19.157Z,9.87
2023-03-29T08:01:19.902Z,10.17
2023-03-29T08:02:19.114Z,10.47
2023-03-29T08:03:19.185Z,11.00
2023-03-29T08:04:19.188Z,11.27
2023-03-29T08:05:29.251Z,11.00
2023-03-29T08:06:20.045Z,12.06
2023-03-29T08:07:20.101Z,10.27
2023-03-29T08:08:19.091Z,10.11
2023-03-29T08:09:19.092Z,9.20
2023-03-29T08:10:19.056Z,8.97
2023-03-29T08:11:19.070Z,10.11
2023-03-29T08:12:19.007Z,9.25
2023-03-29T08:13:18.980Z,10.15
2023-03-29T08:14:19.023Z,9.51
2023-03-29T08:15:19.614Z,10.24
2023-03-29T08:16:19.021Z,11.39
2023-03-29T08:17:19.062Z,10.34
2023-03-29T08:18:19.029Z,11.40
2023-03-29T08:19:19.208Z,11.31
2023-03-29T08:20:19.172Z,9.92
2023-03-29T08:21:19.648Z,9.38
2023-03-29T08:22:19.093Z,9.71
2023-03-29T08:23:19.143Z,8.67
2023-03-29T08:24:20.900Z,7.38
2023-03-29T08:25:19.565Z,8.30
2023-03-29T08:26:19.364Z,7.62
2023-03-29T08:27:19.313Z,6.62
2023-03-29T08:28:19.286Z,7.53
2023-03-29T08:29:19.343Z,6.38
2023-03-29T08:30:19.377Z,6.56
2023-03-29T08:31:19.398Z,6.72
2023-03-29T08:32:19.423Z,6.33
2023-03-29T08:33:19.396Z,5.68
2023-03-29T08:34:19.423Z,6.12
2023-03-29T08:35:19.602Z,5.18
2023-03-29T08:36:19.454Z,6.01
2023-03-29T08:37:19.446Z,6.25
2023-03-29T08:38:19.395Z,6.33
2023-03-29T08:39:19.699Z,6.40
2023-03-29T08:40:19.672Z,6.04
2023-03-29T08:41:19.462Z,6.17
2023-03-29T08:42:19.456Z,6.40
2023-03-29T08:43:19.674Z,6.51
2023-03-29T08:44:19.502Z,6.49
2023-03-29T08:45:19.525Z,7.06
2023-03-29T08:46:19.532Z,7.74
2023-03-29T08:47:19.562Z,11.09
2023-03-29T08:48:19.486Z,7.78
2023-03-29T08:49:19.495Z,7.19
2023-03-29T08:50:19.562Z,6.11
2023-03-29T08:51:19.488Z,6.19
2023-03-29T08:52:19.485Z,5.57
2023-03-29T08:53:19.495Z,5.69
2023-03-29T08:54:19.521Z,5.52
2023-03-29T08:55:19.561Z,5.16
2023-03-29T08:56:19.427Z,5.61
2023-03-29T08:57:19.541Z,6.11
2023-03-29T08:58:19.568Z,6.16
2023-03-29T08:59:19.501Z,7.23
2023-03-29T09:00:19.633Z,6.01
2023-03-29T09:01:19.629Z,5.55
2023-03-29T09:02:19.712Z,5.72
2023-03-29T09:03:19.754Z,5.42
2023-03-29T09:04:19.732Z,5.46
2023-03-29T09:05:20.162Z,6.20
2023-03-29T09:06:19.834Z,5.71
2023-03-29T09:07:19.909Z,6.17
2023-03-29T09:08:19.870Z,6.73
2023-03-29T09:09:19.960Z,6.85
2023-03-29T09:10:19.949Z,6.67
2023-03-29T09:11:19.976Z,7.42
2023-03-29T09:12:20.041Z,7.35
2023-03-29T09:13:20.142Z,6.78
2023-03-29T09:14:20.095Z,6.60
2023-03-29T09:15:20.090Z,6.81
2023-03-29T09:16:20.197Z,8.45
2023-03-29T09:17:20.112Z,8.80
2023-03-29T09:18:20.181Z,7.42
2023-03-29T09:19:20.137Z,8.26
2023-03-29T09:20:20.616Z,7.90
2023-03-29T09:21:20.226Z,8.87
2023-03-29T09:22:20.244Z,9.02
2023-03-29T09:23:20.290Z,10.61
2023-03-29T09:24:20.330Z,10.12
2023-03-29T09:25:20.609Z,8.57
2023-03-29T09:26:20.397Z,8.54
2023-03-29T09:27:20.374Z,8.15
2023-03-29T09:28:20.388Z,7.61
2023-03-29T09:29:20.390Z,8.50
2023-03-29T09:30:20.554Z,8.41
2023-03-29T09:31:20.481Z,8.62
2023-03-29T09:32:20.417Z,8.43
2023-03-29T09:33:20.427Z,8.04
2023-03-29T09:34:20.433Z,7.97
2023-03-29T09:35:20.600Z,8.70
2023-03-29T09:36:20.580Z,8.09
2023-03-29T09:37:20.616Z,8.52
2023-03-29T09:38:20.680Z,8.67
2023-03-29T09:39:20.973Z,7.68
2023-03-29T09:40:21.777Z,7.68
2023-03-29T09:41:20.853Z,8.02
2023-03-29T09:42:20.988Z,8.35
2023-03-29T09:43:20.641Z,7.48
2023-03-29T09:44:30.329Z,7.01
2023-03-29T09:45:22.036Z,7.08
2023-03-29T09:46:20.701Z,8.41
2023-03-29T09:47:20.653Z,8.90
2023-03-29T09:48:20.648Z,8.42
2023-03-29T09:49:20.700Z,7.47
2023-03-29T09:50:30.730Z,6.63
2023-03-29T09:51:21.648Z,7.82
2023-03-29T09:52:20.658Z,6.35
2023-03-29T09:53:20.693Z,5.48
2023-03-29T09:54:20.776Z,5.43
2023-03-29T09:55:20.930Z,5.04
2023-03-29T09:56:20.854Z,5.04
2023-03-29T09:57:20.958Z,5.46
2023-03-29T09:58:20.928Z,6.47
2023-03-29T09:59:20.986Z,4.54
2023-03-29T10:00:21.023Z,4.24
2023-03-29T10:01:21.731Z,3.67
2023-03-29T10:02:22.727Z,4.22
2023-03-29T10:03:21.173Z,3.44
2023-03-29T10:04:21.620Z,4.00
2023-03-29T10:05:20.972Z,3.85
2023-03-29T10:06:21.051Z,4.11
2023-03-29T10:07:20.925Z,3.70
2023-03-29T10:08:21.024Z,3.71
2023-03-29T10:09:21.985Z,3.31
2023-03-29T10:10:20.996Z,4.25
2023-03-29T10:11:20.953Z,3.84
2023-03-29T10:12:20.988Z,4.13
2023-03-29T10:13:20.907Z,3.74
2023-03-29T10:14:20.918Z,3.97
2023-03-29T10:15:29.166Z,3.92
2023-03-29T10:16:22.029Z,3.87
2023-03-29T10:17:20.979Z,3.08
2023-03-29T10:18:20.958Z,3.59
2023-03-29T10:19:20.845Z,3.63
2023-03-29T10:20:20.949Z,4.93
2023-03-29T10:21:21.014Z,3.25
2023-03-29T10:22:20.843Z,3.50
2023-03-29T10:23:20.818Z,3.62
2023-03-29T10:24:20.808Z,3.25
2023-03-29T10:25:20.850Z,2.88
2023-03-29T10:26:21.169Z,2.93
2023-03-29T10:27:20.917Z,3.60
2023-03-29T10:28:20.876Z,3.03
2023-03-29T10:29:21.021Z,3.20
2023-03-29T10:30:20.927Z,2.93
2023-03-29T10:31:21.144Z,3.20
2023-03-29T10:32:20.984Z,3.44
2023-03-29T10:33:20.970Z,3.24
2023-03-29T10:34:21.094Z,3.48
2023-03-29T10:35:21.058Z,3.35
2023-03-29T10:36:21.097Z,3.10
2023-03-29T10:37:21.207Z,3.26
2023-03-29T10:38:21.371Z,3.26
2023-03-29T10:39:21.354Z,3.22
2023-03-29T10:40:21.370Z,3.32
2023-03-29T10:41:21.201Z,2.50
2023-03-29T10:42:21.258Z,3.41
2023-03-29T10:43:21.285Z,2.45
2023-03-29T10:44:21.292Z,2.88
2023-03-29T10:45:21.258Z,2.92
2023-03-29T10:46:21.397Z,2.89
2023-03-29T10:47:22.096Z,2.86
2023-03-29T10:48:21.317Z,3.09
2023-03-29T10:49:21.314Z,3.12
2023-03-29T10:50:21.665Z,3.60
2023-03-29T10:51:21.444Z,3.60
2023-03-29T10:52:21.499Z,3.52
2023-03-29T10:53:21.472Z,3.57
2023-03-29T10:54:21.503Z,3.25
2023-03-29T10:55:21.536Z,3.62
2023-03-29T10:56:21.592Z,3.80
2023-03-29T10:57:22.802Z,4.05
2023-03-29T10:58:21.592Z,3.88
2023-03-29T10:59:21.613Z,3.64
2023-03-29T11:00:21.633Z,4.11
2023-03-29T11:01:21.801Z,3.75
2023-03-29T11:02:22.442Z,3.74
2023-03-29T11:03:21.955Z,3.72
2023-03-29T11:04:21.733Z,3.85
2023-03-29T11:05:21.746Z,3.59
2023-03-29T11:06:21.780Z,3.92
2023-03-29T11:07:21.751Z,3.72
2023-03-29T11:08:21.818Z,3.83
2023-03-29T11:09:21.798Z,3.32
2023-03-29T11:10:21.704Z,3.77
2023-03-29T11:11:21.865Z,3.32
2023-03-29T11:12:21.885Z,4.48
2023-03-29T11:13:21.889Z,3.37
2023-03-29T11:14:21.832Z,4.01
2023-03-29T11:15:21.995Z,3.66
2023-03-29T11:16:33.634Z,3.43
2023-03-29T11:17:22.087Z,3.70
2023-03-29T11:18:21.999Z,4.03
2023-03-29T11:19:21.938Z,3.73
2023-03-29T11:20:21.966Z,3.88
2023-03-29T11:21:22.111Z,4.06
2023-03-29T11:22:22.652Z,3.97
2023-03-29T11:23:21.905Z,4.54
2023-03-29T11:24:23.142Z,3.53
2023-03-29T11:25:22.074Z,3.59
2023-03-29T11:26:22.219Z,3.86
2023-03-29T11:27:22.019Z,3.74
2023-03-29T11:28:21.984Z,3.71
2023-03-29T11:29:22.691Z,3.75
2023-03-29T11:30:23.290Z,5.14
2023-03-29T11:31:22.277Z,4.33
2023-03-29T11:32:22.175Z,4.36
2023-03-29T11:33:21.979Z,3.74
2023-03-29T11:34:22.004Z,4.23
2023-03-29T11:35:21.968Z,3.68
2023-03-29T11:36:22.122Z,3.73
2023-03-29T11:37:21.911Z,3.29
2023-03-29T11:38:21.919Z,3.73
2023-03-29T11:39:21.968Z,3.62
2023-03-29T11:40:22.715Z,3.39
2023-03-29T11:41:22.071Z,6.83
2023-03-29T11:42:21.937Z,4.22
2023-03-29T11:43:21.841Z,4.23
2023-03-29T11:44:21.839Z,3.18
2023-03-29T11:45:21.769Z,4.65
2023-03-29T11:46:22.167Z,3.75
2023-03-29T11:47:21.870Z,4.66
2023-03-29T11:48:21.852Z,4.52
2023-03-29T11:49:21.809Z,4.35
2023-03-29T11:50:21.794Z,4.17
2023-03-29T11:51:21.823Z,3.73
2023-03-29T11:52:21.793Z,3.83
2023-03-29T11:53:21.798Z,4.26
2023-03-29T11:54:22.568Z,4.14
2023-03-29T11:55:21.916Z,3.53
2023-03-29T11:56:21.910Z,3.21
2023-03-29T11:57:21.995Z,4.16
2023-03-29T11:58:21.921Z,3.52
2023-03-29T11:59:21.893Z,3.82
2023-03-29T12:00:21.967Z,3.73
2023-03-29T12:01:21.958Z,3.92
2023-03-29T12:02:22.058Z,3.86
2023-03-29T12:03:22.198Z,3.89
2023-03-29T12:04:22.030Z,3.52
2023-03-29T12:05:29.660Z,3.66
2023-03-29T12:06:22.000Z,4.14
2023-03-29T12:07:22.009Z,3.56
2023-03-29T12:08:21.980Z,4.41
2023-03-29T12:09:21.977Z,3.69
2023-03-29T12:10:21.975Z,4.30
2023-03-29T12:11:21.988Z,4.88
2023-03-29T12:12:21.979Z,4.46
2023-03-29T12:13:22.016Z,4.03
2023-03-29T12:14:21.898Z,5.19
2023-03-29T12:15:21.948Z,3.96
2023-03-29T12:16:22.064Z,5.56
2023-03-29T12:17:22.013Z,4.15
2023-03-29T12:18:21.951Z,4.75
2023-03-29T12:19:21.941Z,4.43
2023-03-29T12:20:21.921Z,4.82
2023-03-29T12:21:21.971Z,4.12
2023-03-29T12:22:22.008Z,4.26
2023-03-29T12:23:21.924Z,4.49
2023-03-29T12:24:22.119Z,4.58
2023-03-29T12:25:23.265Z,4.43
2023-03-29T12:26:22.008Z,4.63
2023-03-29T12:27:22.046Z,4.34
2023-03-29T12:28:22.047Z,4.35
2023-03-29T12:29:22.089Z,4.58
2023-03-29T12:30:22.066Z,4.75
2023-03-29T12:31:22.253Z,4.23
2023-03-29T12:32:22.212Z,4.51
2023-03-29T12:33:22.141Z,4.21
2023-03-29T12:34:22.201Z,4.33
2023-03-29T12:35:22.153Z,3.73
2023-03-29T12:36:22.168Z,5.91
2023-03-29T12:37:22.196Z,5.20
2023-03-29T12:38:22.164Z,4.86
2023-03-29T12:39:22.209Z,5.04
2023-03-29T12:40:22.240Z,4.76
2023-03-29T12:41:22.343Z,4.54
2023-03-29T12:42:22.353Z,4.47
2023-03-29T12:43:22.350Z,4.33
2023-03-29T12:44:22.427Z,3.72
2023-03-29T12:45:22.378Z,4.27
2023-03-29T12:46:22.592Z,4.17
2023-03-29T12:47:22.491Z,4.00
2023-03-29T12:48:22.562Z,3.41
2023-03-29T12:49:22.552Z,3.02
2023-03-29T12:50:22.568Z,2.87
2023-03-29T12:51:22.782Z,2.75
2023-03-29T12:52:22.621Z,2.66
2023-03-29T12:53:22.640Z,3.12
2023-03-29T12:54:22.700Z,2.77
2023-03-29T12:55:22.721Z,2.58
2023-03-29T12:56:23.174Z,3.18
2023-03-29T12:57:22.813Z,2.87
2023-03-29T12:58:22.742Z,2.96
2023-03-29T12:59:22.783Z,2.80
2023-03-29T13:00:22.761Z,2.88
2023-03-29T13:01:22.914Z,2.88
2023-03-29T13:02:22.896Z,3.04
2023-03-29T13:03:22.905Z,2.83
2023-03-29T13:04:22.763Z,2.69
2023-03-29T13:05:22.856Z,2.96
2023-03-29T13:06:22.804Z,3.30
2023-03-29T13:07:22.879Z,2.85
2023-03-29T13:08:22.869Z,2.56
2023-03-29T13:09:22.930Z,2.75
2023-03-29T13:10:22.839Z,2.89
2023-03-29T13:11:22.865Z,2.69
2023-03-29T13:12:22.882Z,3.14
2023-03-29T13:13:23.592Z,3.42
2023-03-29T13:14:22.869Z,3.39